Time;durP1;ratioP1;P1;durP2;ratioP2;P2;SDS_P1;SDS_P2;PMS_P1;PMS_P2;Temp;Humidity;BMP_temperature;BMP_pressure;BME280_temperature;BME280_humidity;BME280_pressure;Samples;Min_cycle;Max_cycle;Signal;HPM_P1;HPM_P2
2022/01/07 00:00:21;;;;;;;23.60;13.70;;;4.30;99.90;;;;;;5043044;28;20772;-72
2022/01/07 00:02:55;;;;;;;22.13;13.10;;;4.30;99.90;;;;;;5029302;28;21192;-71
2022/01/07 00:05:24;;;;;;;25.97;15.60;;;4.20;99.90;;;;;;5030647;28;21188;-72
2022/01/07 00:07:50;;;;;;;24.53;13.33;;;4.20;99.90;;;;;;5039394;28;20768;-72
2022/01/07 00:10:20;;;;;;;23.77;14.20;;;4.20;99.90;;;;;;5037292;28;20647;-73
2022/01/07 00:12:51;;;;;;;24.90;14.37;;;4.20;99.90;;;;;;5056251;28;20263;-73
2022/01/07 00:15:20;;;;;;;20.00;12.87;;;4.20;99.90;;;;;;5038626;28;20638;-73
2022/01/07 00:17:46;;;;;;;22.97;14.03;;;4.20;99.90;;;;;;5057801;28;20630;-72
2022/01/07 00:20:13;;;;;;;27.73;13.53;;;4.30;99.90;;;;;;5057163;28;20642;-72
2022/01/07 00:22:40;;;;;;;24.43;15.30;;;4.30;99.90;;;;;;5056088;28;20690;-72
2022/01/07 00:25:08;;;;;;;22.47;14.00;;;4.30;99.90;;;;;;5060583;28;20633;-72
2022/01/07 00:27:34;;;;;;;21.23;13.00;;;4.30;99.90;;;;;;5025334;28;20639;-71
2022/01/07 00:30:00;;;;;;;26.57;14.10;;;4.20;99.90;;;;;;5044549;28;21030;-72
2022/01/07 00:32:25;;;;;;;23.40;14.43;;;4.20;99.90;;;;;;5046433;28;20617;-71
2022/01/07 00:34:51;;;;;;;21.90;12.90;;;4.20;99.90;;;;;;5062914;28;20202;-73
2022/01/07 00:37:17;;;;;;;22.37;13.33;;;4.20;99.90;;;;;;5046203;28;20200;-71
2022/01/07 00:39:43;;;;;;;20.20;12.70;;;4.20;99.90;;;;;;5046485;28;20238;-72
2022/01/07 00:42:08;;;;;;;24.13;12.97;;;4.20;99.90;;;;;;5030117;28;20713;-73
2022/01/07 00:44:34;;;;;;;21.00;13.63;;;4.10;99.90;;;;;;5046755;28;20195;-72
2022/01/07 00:47:02;;;;;;;19.00;12.63;;;4.20;99.90;;;;;;5047527;28;20650;-72
2022/01/07 00:49:28;;;;;;;23.00;13.50;;;4.20;99.90;;;;;;5046424;28;20278;-72
2022/01/07 00:51:53;;;;;;;23.03;13.50;;;4.20;99.90;;;;;;5045541;28;20607;-72
2022/01/07 00:54:21;;;;;;;23.67;13.13;;;4.10;99.90;;;;;;5021335;28;20644;-73
2022/01/07 00:56:49;;;;;;;22.07;12.37;;;4.10;99.90;;;;;;5046033;28;20184;-72
2022/01/07 00:59:14;;;;;;;20.97;12.00;;;4.10;99.90;;;;;;5044389;28;20642;-72
2022/01/07 01:01:42;;;;;;;25.57;12.90;;;4.10;99.90;;;;;;5043041;28;21375;-74
2022/01/07 01:04:11;;;;;;;23.17;12.87;;;4.20;99.90;;;;;;5041745;28;20207;-72
2022/01/07 01:06:41;;;;;;;19.80;12.07;;;4.20;99.90;;;;;;5028228;28;20623;-72
2022/01/07 01:09:09;;;;;;;22.47;12.40;;;4.10;99.90;;;;;;5043643;28;20645;-72
2022/01/07 01:11:36;;;;;;;20.70;11.57;;;4.10;99.90;;;;;;5026079;28;21065;-72
2022/01/07 01:14:02;;;;;;;25.77;11.47;;;4.10;99.90;;;;;;5028576;28;20633;-72
2022/01/07 01:16:27;;;;;;;19.63;11.53;;;4.10;99.90;;;;;;5045473;28;21207;-72
2022/01/07 01:18:55;;;;;;;27.60;12.33;;;4.10;99.90;;;;;;5044388;28;20643;-72
2022/01/07 01:21:21;;;;;;;17.00;11.73;;;4.10;99.90;;;;;;5026666;28;20184;-72
2022/01/07 01:23:47;;;;;;;20.50;11.20;;;4.10;99.90;;;;;;5037719;28;20756;-72
2022/01/07 01:26:13;;;;;;;17.80;11.03;;;4.10;99.90;;;;;;5042818;28;20183;-73
2022/01/07 01:28:40;;;;;;;20.10;11.30;;;4.10;99.90;;;;;;5023712;28;20224;-71
2022/01/07 01:31:09;;;;;;;18.07;10.87;;;4.10;99.90;;;;;;5045218;28;20743;-71
2022/01/07 01:33:37;;;;;;;17.20;12.17;;;4.10;99.90;;;;;;5058567;28;20619;-72
2022/01/07 01:36:05;;;;;;;16.60;10.07;;;4.10;99.90;;;;;;5042907;28;20664;-72
2022/01/07 01:38:31;;;;;;;14.97;10.10;;;4.10;99.90;;;;;;5044847;28;20637;-72
2022/01/07 01:40:57;;;;;;;21.40;12.30;;;4.10;99.90;;;;;;5023625;28;20618;-72
2022/01/07 01:43:28;;;;;;;20.10;11.37;;;4.10;99.90;;;;;;5058182;28;20232;-72
2022/01/07 01:45:53;;;;;;;18.83;10.37;;;4.00;99.90;;;;;;5044219;28;20610;-72
2022/01/07 01:48:21;;;;;;;18.60;10.90;;;4.00;99.90;;;;;;5043359;28;20955;-71
2022/01/07 01:50:48;;;;;;;14.10;9.80;;;4.00;99.90;;;;;;5043781;28;20199;-72
2022/01/07 01:53:14;;;;;;;19.27;10.30;;;4.10;99.90;;;;;;5021114;28;20614;-73
2022/01/07 01:55:43;;;;;;;16.93;10.37;;;4.10;99.90;;;;;;5045964;28;20603;-72
2022/01/07 01:58:08;;;;;;;15.43;8.63;;;4.10;99.90;;;;;;5023516;28;20708;-72
2022/01/07 02:00:34;;;;;;;17.67;9.83;;;4.10;99.90;;;;;;5045549;28;21307;-72
2022/01/07 02:03:00;;;;;;;21.93;10.53;;;4.10;99.90;;;;;;5042502;28;20180;-72
2022/01/07 02:05:29;;;;;;;16.63;9.13;;;4.20;99.90;;;;;;5047021;28;20180;-72
2022/01/07 02:07:57;;;;;;;16.17;10.00;;;4.20;99.90;;;;;;5041495;28;20729;-73
2022/01/07 02:10:23;;;;;;;16.13;9.20;;;4.10;99.90;;;;;;5035514;28;20999;-72
2022/01/07 02:12:48;;;;;;;13.60;8.50;;;4.20;99.90;;;;;;5060069;28;20614;-72
2022/01/07 02:15:15;;;;;;;18.60;9.20;;;4.10;99.90;;;;;;5045418;28;20607;-72
2022/01/07 02:17:45;;;;;;;16.60;9.23;;;4.10;99.90;;;;;;5024709;28;20207;-72
2022/01/07 02:20:13;;;;;;;14.13;9.20;;;4.20;99.90;;;;;;5023429;28;20657;-72
2022/01/07 02:22:43;;;;;;;14.80;9.63;;;4.20;99.90;;;;;;5043696;28;20599;-72
2022/01/07 02:25:10;;;;;;;18.07;9.47;;;4.20;99.90;;;;;;5044653;28;20606;-72
2022/01/07 02:27:41;;;;;;;13.60;8.57;;;4.20;99.90;;;;;;5044560;28;20745;-71
2022/01/07 02:30:09;;;;;;;14.30;8.47;;;4.10;99.90;;;;;;5026651;28;20638;-72
2022/01/07 02:32:35;;;;;;;11.00;8.13;;;4.20;99.90;;;;;;5042281;28;21202;-72
2022/01/07 02:35:01;;;;;;;15.10;8.43;;;4.20;99.90;;;;;;5026340;28;20682;-72
2022/01/07 02:37:26;;;;;;;13.30;7.47;;;4.20;99.90;;;;;;5025903;28;20237;-72
2022/01/07 02:39:54;;;;;;;12.93;7.90;;;4.10;99.90;;;;;;5042501;28;20272;-73
2022/01/07 02:42:20;;;;;;;13.73;7.90;;;4.10;99.90;;;;;;5043329;28;20247;-72
2022/01/07 02:44:46;;;;;;;14.23;8.60;;;4.20;99.90;;;;;;5041903;28;20623;-71
2022/01/07 02:47:15;;;;;;;15.70;8.10;;;4.20;99.90;;;;;;5025470;28;24212;-73
2022/01/07 02:49:43;;;;;;;12.23;7.17;;;4.20;99.90;;;;;;5041085;28;20228;-73
2022/01/07 02:52:11;;;;;;;13.33;8.07;;;4.20;99.90;;;;;;5057278;28;20807;-72
2022/01/07 02:54:37;;;;;;;14.30;7.27;;;4.20;99.90;;;;;;5043062;28;22403;-72
2022/01/07 02:57:03;;;;;;;10.80;6.93;;;4.20;99.90;;;;;;5044538;28;20706;-72
2022/01/07 02:59:28;;;;;;;12.50;7.37;;;4.20;99.90;;;;;;5058263;28;20652;-73
2022/01/07 03:01:54;;;;;;;12.17;7.47;;;4.20;99.90;;;;;;5024087;28;20203;-72
2022/01/07 03:04:20;;;;;;;12.40;6.93;;;4.10;99.90;;;;;;5041082;28;20215;-73
2022/01/07 03:06:48;;;;;;;10.13;5.90;;;4.50;99.90;;;;;;5044227;28;20184;-73
2022/01/07 03:09:13;;;;;;;13.77;7.60;;;4.30;99.90;;;;;;5039987;28;20251;-73
2022/01/07 03:11:39;;;;;;;12.33;7.23;;;4.30;99.90;;;;;;5039392;28;20714;-72
2022/01/07 03:14:07;;;;;;;14.43;7.40;;;4.30;99.90;;;;;;5024523;28;20242;-72
2022/01/07 03:16:33;;;;;;;9.63;7.27;;;4.30;99.90;;;;;;5044416;28;20291;-71
2022/01/07 03:18:58;;;;;;;10.53;6.73;;;4.30;99.90;;;;;;5056609;28;20753;-72
2022/01/07 03:21:24;;;;;;;12.87;6.90;;;4.30;99.90;;;;;;5027725;28;20627;-71
2022/01/07 03:23:52;;;;;;;13.83;6.83;;;4.30;99.90;;;;;;5030436;28;20257;-72
2022/01/07 03:26:18;;;;;;;9.23;6.30;;;4.30;99.90;;;;;;5046292;28;20243;-71
2022/01/07 03:28:46;;;;;;;10.43;6.30;;;4.30;99.90;;;;;;5043415;28;20635;-73
2022/01/07 03:31:11;;;;;;;16.90;7.00;;;4.30;99.90;;;;;;5045650;28;20180;-72
2022/01/07 03:33:39;;;;;;;10.33;6.27;;;4.30;99.90;;;;;;5046144;28;20684;-72
2022/01/07 03:36:05;;;;;;;9.63;6.10;;;4.30;99.90;;;;;;5045212;28;21056;-72
2022/01/07 03:38:33;;;;;;;12.17;6.23;;;4.30;99.90;;;;;;5045368;28;20713;-72
2022/01/07 03:40:59;;;;;;;9.77;6.90;;;4.30;99.90;;;;;;5047731;28;20188;-72
2022/01/07 03:43:25;;;;;;;10.40;6.10;;;4.40;99.90;;;;;;5044437;28;20610;-73
2022/01/07 03:45:50;;;;;;;8.60;5.60;;;4.30;99.90;;;;;;5049364;28;20260;-71
2022/01/07 03:48:16;;;;;;;10.20;6.77;;;4.30;99.90;;;;;;5028284;28;20214;-71
2022/01/07 03:50:42;;;;;;;14.23;6.20;;;4.30;99.90;;;;;;5048698;28;20255;-71
2022/01/07 03:53:08;;;;;;;10.60;6.20;;;4.40;99.90;;;;;;5050114;28;20184;-72
2022/01/07 03:55:34;;;;;;;12.77;6.27;;;4.40;99.90;;;;;;5046962;28;20212;-71
2022/01/07 03:58:05;;;;;;;7.83;5.17;;;4.30;99.90;;;;;;5049658;28;20741;-71
2022/01/07 04:00:37;;;;;;;8.30;4.97;;;4.30;99.90;;;;;;5047569;28;20783;-71
2022/01/07 04:03:05;;;;;;;7.10;4.87;;;4.40;99.90;;;;;;5061742;28;22280;-71
2022/01/07 04:05:34;;;;;;;6.87;5.10;;;4.40;99.90;;;;;;5048065;28;20615;-71
2022/01/07 04:07:59;;;;;;;9.27;5.73;;;4.40;99.90;;;;;;5047436;28;20643;-72
2022/01/07 04:10:25;;;;;;;13.03;5.80;;;4.40;99.90;;;;;;5046763;28;20931;-72
2022/01/07 04:12:53;;;;;;;9.80;5.37;;;4.40;99.90;;;;;;5048454;28;20338;-72
2022/01/07 04:15:21;;;;;;;11.73;5.30;;;4.30;99.90;;;;;;5026786;28;20192;-72
2022/01/07 04:17:48;;;;;;;9.43;5.20;;;4.30;99.90;;;;;;5044620;28;21267;-72
2022/01/07 04:20:17;;;;;;;9.70;5.20;;;4.20;99.90;;;;;;5047156;28;20670;-72
2022/01/07 04:22:45;;;;;;;7.30;5.13;;;4.20;99.90;;;;;;5046467;28;23242;-72
2022/01/07 04:25:17;;;;;;;10.10;5.37;;;4.30;99.90;;;;;;5025753;28;23564;-72
2022/01/07 04:27:46;;;;;;;9.10;4.70;;;4.30;99.90;;;;;;5045872;28;20699;-72
2022/01/07 04:30:13;;;;;;;8.80;5.50;;;4.30;99.90;;;;;;5045454;28;20657;-72
2022/01/07 04:32:39;;;;;;;6.10;4.60;;;4.20;99.90;;;;;;5028953;28;20967;-72
2022/01/07 04:35:06;;;;;;;8.57;5.33;;;4.40;99.90;;;;;;5045761;28;20626;-72
2022/01/07 04:37:33;;;;;;;8.23;5.27;;;4.20;99.90;;;;;;5058216;28;20720;-72
2022/01/07 04:39:58;;;;;;;11.53;5.83;;;4.10;99.90;;;;;;5045076;28;21190;-72
2022/01/07 04:42:24;;;;;;;13.07;6.07;;;4.10;99.90;;;;;;5027892;28;20631;-72
2022/01/07 04:44:49;;;;;;;10.63;6.10;;;4.00;99.90;;;;;;5060878;28;20619;-72
2022/01/07 04:47:18;;;;;;;9.83;5.60;;;4.00;99.90;;;;;;5042453;28;20649;-72
2022/01/07 04:49:44;;;;;;;8.70;5.80;;;3.90;99.90;;;;;;5061271;28;20246;-72
2022/01/07 04:52:10;;;;;;;10.40;6.20;;;3.90;99.90;;;;;;5047710;28;21395;-72
2022/01/07 04:54:38;;;;;;;10.30;6.40;;;3.80;99.90;;;;;;5045935;28;20693;-72
2022/01/07 04:57:03;;;;;;;9.87;6.13;;;3.70;99.90;;;;;;5044680;28;20192;-72
2022/01/07 04:59:29;;;;;;;13.37;6.30;;;3.70;99.90;;;;;;5045826;28;20661;-72
2022/01/07 05:01:55;;;;;;;8.93;6.50;;;3.70;99.90;;;;;;5046032;28;20199;-70
2022/01/07 05:04:21;;;;;;;11.30;7.30;;;3.60;99.90;;;;;;5026088;28;20196;-71
2022/01/07 05:06:47;;;;;;;11.57;6.40;;;3.60;99.90;;;;;;5038979;28;20196;-71
2022/01/07 05:09:16;;;;;;;11.40;6.43;;;3.70;99.90;;;;;;5027031;28;21316;-71
2022/01/07 05:11:42;;;;;;;11.20;7.47;;;3.60;99.90;;;;;;5044377;28;21161;-71
2022/01/07 05:14:08;;;;;;;13.43;7.10;;;3.60;99.90;;;;;;5027496;28;21485;-71
2022/01/07 05:16:34;;;;;;;10.20;6.70;;;3.60;99.90;;;;;;5046345;28;20728;-71
2022/01/07 05:19:05;;;;;;;11.23;7.20;;;3.40;99.90;;;;;;5059958;28;20262;-72
2022/01/07 05:21:31;;;;;;;14.90;6.87;;;3.60;99.90;;;;;;5043062;28;20191;-72
2022/01/07 05:23:56;;;;;;;10.80;7.63;;;3.60;99.90;;;;;;5043779;28;20684;-72
2022/01/07 05:26:24;;;;;;;11.20;7.50;;;3.70;99.90;;;;;;5020615;28;20659;-72
2022/01/07 05:28:57;;;;;;;12.20;7.30;;;3.60;99.90;;;;;;5041635;28;20269;-72
2022/01/07 05:31:25;;;;;;;11.50;7.47;;;3.70;99.90;;;;;;5045552;28;20700;-72
2022/01/07 05:33:53;;;;;;;9.80;6.57;;;3.70;99.90;;;;;;5039900;28;20669;-72
2022/01/07 05:36:20;;;;;;;10.20;7.23;;;3.70;99.90;;;;;;5044573;28;20618;-71
2022/01/07 05:38:46;;;;;;;11.13;6.93;;;3.60;99.90;;;;;;5023026;28;20745;-72
2022/01/07 05:41:14;;;;;;;9.43;7.77;;;3.60;99.90;;;;;;5042288;28;20717;-71
2022/01/07 05:43:40;;;;;;;10.27;7.43;;;3.40;99.90;;;;;;5022534;28;20689;-72
2022/01/07 05:46:10;;;;;;;11.20;7.23;;;3.40;99.90;;;;;;5026466;28;20622;-72
2022/01/07 05:48:36;;;;;;;11.13;7.50;;;3.50;99.90;;;;;;5028579;28;20598;-72
2022/01/07 05:51:02;;;;;;;12.10;7.27;;;3.40;99.90;;;;;;5022184;28;20761;-72
2022/01/07 05:53:27;;;;;;;10.40;7.47;;;3.50;99.90;;;;;;5046725;28;20717;-72
2022/01/07 05:55:53;;;;;;;11.00;7.63;;;3.50;99.90;;;;;;5023323;28;20195;-71
2022/01/07 05:58:19;;;;;;;13.27;6.80;;;3.50;99.90;;;;;;5023707;28;20261;-72
2022/01/07 06:00:47;;;;;;;9.37;6.90;;;3.50;99.90;;;;;;5042802;28;20188;-72
2022/01/07 06:03:20;;;;;;;11.90;7.80;;;3.50;99.90;;;;;;5039098;28;20192;-72
2022/01/07 06:05:46;;;;;;;12.70;8.47;;;3.50;99.90;;;;;;5025217;28;21229;-71
2022/01/07 06:08:11;;;;;;;11.70;7.63;;;3.60;99.90;;;;;;5046247;28;20630;-71
2022/01/07 06:10:37;;;;;;;11.30;7.60;;;3.60;99.90;;;;;;5021315;28;20602;-72
2022/01/07 06:13:02;;;;;;;11.00;7.70;;;3.50;99.90;;;;;;5031336;28;20351;-71
2022/01/07 06:15:28;;;;;;;8.80;7.67;;;3.40;99.90;;;;;;5043707;28;20192;-71
2022/01/07 06:17:53;;;;;;;10.27;7.80;;;3.30;99.90;;;;;;5036571;28;20243;-72
2022/01/07 06:20:21;;;;;;;12.30;7.40;;;3.30;99.90;;;;;;5037209;28;21042;-72
2022/01/07 06:22:49;;;;;;;11.70;7.53;;;3.40;99.90;;;;;;5020135;28;20181;-72
2022/01/07 06:25:14;;;;;;;11.03;7.30;;;3.30;99.90;;;;;;5021681;28;20619;-72
2022/01/07 06:27:40;;;;;;;12.33;7.30;;;3.30;99.90;;;;;;5036205;28;20653;-71
2022/01/07 06:30:07;;;;;;;13.37;7.73;;;3.30;99.90;;;;;;5029795;28;20228;-71
2022/01/07 06:32:35;;;;;;;10.73;7.67;;;3.30;99.90;;;;;;5036437;28;20590;-71
2022/01/07 06:35:02;;;;;;;10.40;7.27;;;3.30;99.90;;;;;;5040655;28;20689;-74
2022/01/07 06:37:27;;;;;;;12.70;7.67;;;3.30;99.90;;;;;;5016724;28;20649;-72
2022/01/07 06:39:54;;;;;;;10.40;7.73;;;3.30;99.90;;;;;;5012882;28;21031;-71
2022/01/07 06:42:20;;;;;;;9.53;7.33;;;3.30;99.90;;;;;;5022929;28;20192;-72
2022/01/07 06:44:45;;;;;;;11.40;7.03;;;3.30;99.90;;;;;;5039616;28;20691;-72
2022/01/07 06:47:11;;;;;;;10.40;8.40;;;3.20;99.90;;;;;;5037278;28;25553;-72
2022/01/07 06:49:37;;;;;;;12.80;8.37;;;3.30;99.90;;;;;;5020101;28;20302;-72
2022/01/07 06:52:03;;;;;;;10.63;8.10;;;3.30;99.90;;;;;;5022569;28;20184;-72
2022/01/07 06:54:28;;;;;;;13.33;7.90;;;3.30;99.90;;;;;;5028280;28;20231;-72
2022/01/07 06:56:54;;;;;;;8.80;7.20;;;3.30;99.90;;;;;;5042119;28;21279;-72
2022/01/07 06:59:19;;;;;;;14.83;8.03;;;3.30;99.90;;;;;;5042897;28;20228;-72
2022/01/07 07:01:47;;;;;;;10.13;7.50;;;3.20;99.90;;;;;;5046538;28;20200;-72
2022/01/07 07:04:14;;;;;;;11.17;7.80;;;3.20;99.90;;;;;;5015216;28;20212;-72
2022/01/07 07:06:39;;;;;;;11.70;7.73;;;3.20;99.90;;;;;;5018765;28;20669;-71
2022/01/07 07:09:08;;;;;;;11.23;8.20;;;3.20;99.90;;;;;;5046860;28;20848;-72
2022/01/07 07:11:34;;;;;;;8.97;7.10;;;3.20;99.90;;;;;;5048482;28;20274;-72
2022/01/07 07:13:59;;;;;;;9.83;7.30;;;3.20;99.90;;;;;;5029945;28;21197;-72
2022/01/07 07:16:25;;;;;;;11.43;7.60;;;3.20;99.90;;;;;;5045520;28;20613;-72
2022/01/07 07:18:50;;;;;;;17.83;8.23;;;3.30;99.90;;;;;;5060730;28;20247;-71
2022/01/07 07:21:16;;;;;;;8.70;7.50;;;3.30;99.90;;;;;;5060436;28;20703;-71
2022/01/07 07:23:42;;;;;;;8.00;7.20;;;3.30;99.90;;;;;;5029119;28;20184;-72
2022/01/07 07:26:07;;;;;;;10.00;8.03;;;3.20;99.90;;;;;;5045965;28;20200;-72
2022/01/07 07:28:36;;;;;;;9.27;7.93;;;3.20;99.90;;;;;;5024865;28;20308;-72
2022/01/07 07:31:05;;;;;;;10.10;7.70;;;3.20;99.90;;;;;;5046825;28;20211;-72
2022/01/07 07:33:53;;;;;;;10.30;7.80;;;3.30;99.90;;;;;;5048602;28;21211;-72
2022/01/07 07:36:30;;;;;;;8.97;7.17;;;3.20;99.90;;;;;;5047894;28;20598;-72
2022/01/07 07:39:07;;;;;;;11.00;8.93;;;3.20;99.90;;;;;;5030617;28;20623;-72
2022/01/07 07:41:35;;;;;;;12.17;7.70;;;3.20;99.90;;;;;;5044169;28;20599;-71
2022/01/07 07:44:01;;;;;;;11.90;8.23;;;3.20;99.90;;;;;;5030556;28;20732;-72
2022/01/07 07:46:30;;;;;;;10.70;7.90;;;3.30;99.90;;;;;;5046354;28;21145;-71
2022/01/07 07:48:57;;;;;;;10.70;8.27;;;3.30;99.90;;;;;;5050467;28;20725;-72
2022/01/07 07:51:22;;;;;;;12.90;8.03;;;3.30;99.90;;;;;;5044163;28;20664;-72
2022/01/07 07:53:48;;;;;;;9.87;7.97;;;3.30;99.90;;;;;;5063604;28;20634;-72
2022/01/07 07:56:15;;;;;;;11.13;8.53;;;3.40;99.90;;;;;;5049416;28;20188;-72
2022/01/07 07:58:42;;;;;;;11.07;8.00;;;3.60;99.90;;;;;;5063978;28;20247;-72
2022/01/07 08:01:12;;;;;;;10.67;7.60;;;3.30;99.90;;;;;;5027591;28;20673;-72
2022/01/07 08:03:37;;;;;;;11.87;8.77;;;3.30;99.90;;;;;;5062242;28;20611;-72
2022/01/07 08:06:03;;;;;;;11.97;8.50;;;3.30;99.90;;;;;;5061954;28;20671;-72
2022/01/07 08:08:28;;;;;;;12.60;8.47;;;3.40;99.90;;;;;;5044288;28;20204;-72
2022/01/07 08:10:58;;;;;;;10.40;8.80;;;3.40;99.90;;;;;;5044861;28;20176;-72
2022/01/07 08:16:23;;;;;;;12.83;9.37;;;3.50;99.90;;;;;;4974667;28;20621;-73
2022/01/07 08:18:55;;;;;;;12.63;8.90;;;3.50;99.90;;;;;;5047224;28;20796;-71
2022/01/07 08:21:26;;;;;;;14.83;9.57;;;3.50;99.90;;;;;;5045003;28;20693;-72
2022/01/07 08:23:53;;;;;;;10.63;8.67;;;3.50;99.90;;;;;;5045531;28;20684;-72
2022/01/07 08:26:19;;;;;;;11.27;8.90;;;3.50;99.90;;;;;;5059863;28;20629;-72
2022/01/07 08:28:52;;;;;;;11.30;9.20;;;3.60;99.90;;;;;;5045785;28;20685;-72
2022/01/07 08:36:31;;;;;;;12.57;8.67;;;3.60;99.90;;;;;;5043462;28;20621;-72
2022/01/07 08:38:58;;;;;;;13.87;9.83;;;3.50;99.90;;;;;;5026908;28;21193;-72
2022/01/07 08:41:28;;;;;;;16.23;9.33;;;3.40;99.90;;;;;;5044891;28;20750;-72
2022/01/07 08:43:54;;;;;;;11.90;9.03;;;3.50;99.90;;;;;;5029755;28;20700;-72
2022/01/07 08:46:20;;;;;;;12.40;8.17;;;3.50;99.90;;;;;;5061792;28;20621;-72
2022/01/07 08:48:46;;;;;;;11.90;8.17;;;3.50;99.90;;;;;;5056070;28;20642;-73
2022/01/07 08:51:12;;;;;;;10.57;8.60;;;3.50;99.90;;;;;;5025640;28;20672;-72
2022/01/07 08:53:37;;;;;;;10.50;8.00;;;3.50;99.90;;;;;;5045788;28;20646;-72
2022/01/07 08:56:04;;;;;;;11.73;8.10;;;3.50;99.90;;;;;;5069411;28;20270;-73
2022/01/07 08:58:30;;;;;;;12.53;8.37;;;3.50;99.90;;;;;;5075951;28;20215;-72
2022/01/07 09:00:56;;;;;;;9.00;8.03;;;3.50;99.90;;;;;;5039084;28;20610;-73
2022/01/07 09:03:22;;;;;;;9.70;7.10;;;3.40;99.90;;;;;;5060531;28;20236;-76
2022/01/07 09:05:48;;;;;;;10.87;8.10;;;3.40;99.90;;;;;;5060569;28;20196;-73
2022/01/07 09:08:14;;;;;;;10.17;8.07;;;3.40;99.90;;;;;;5058738;28;20749;-72
2022/01/07 09:10:41;;;;;;;10.93;7.37;;;3.50;99.90;;;;;;5060488;28;20782;-72
2022/01/07 09:13:07;;;;;;;10.57;8.03;;;3.40;99.90;;;;;;5035942;28;20641;-72
2022/01/07 09:15:33;;;;;;;11.57;7.67;;;3.40;99.90;;;;;;5044861;28;20638;-72
2022/01/07 09:17:59;;;;;;;9.77;8.57;;;3.50;99.90;;;;;;5045941;28;20669;-72
2022/01/07 09:20:25;;;;;;;11.57;8.60;;;3.50;99.90;;;;;;5046575;28;20749;-72
2022/01/07 09:22:51;;;;;;;10.97;8.70;;;3.50;99.90;;;;;;5047345;28;20737;-73
2022/01/07 09:25:17;;;;;;;9.73;8.40;;;3.50;99.90;;;;;;5046278;28;20626;-72
2022/01/07 09:27:43;;;;;;;10.77;7.93;;;3.50;99.90;;;;;;5048666;28;20642;-73
2022/01/07 09:30:11;;;;;;;11.77;8.30;;;3.50;99.90;;;;;;5046301;28;20635;-73
2022/01/07 09:32:39;;;;;;;10.50;7.70;;;3.50;99.90;;;;;;5043015;28;21311;-73
2022/01/07 09:35:06;;;;;;;9.60;7.87;;;3.50;99.90;;;;;;5027496;28;20641;-72
2022/01/07 09:37:32;;;;;;;8.83;7.93;;;3.50;99.90;;;;;;5023776;28;20773;-72
2022/01/07 09:40:00;;;;;;;11.20;8.13;;;3.50;99.90;;;;;;5044343;28;20658;-72
2022/01/07 09:42:27;;;;;;;10.60;8.60;;;3.40;99.90;;;;;;5045099;28;20607;-73
2022/01/07 09:44:53;;;;;;;10.43;8.37;;;3.50;99.90;;;;;;5047049;28;20696;-72
2022/01/07 09:47:19;;;;;;;9.57;8.40;;;3.50;99.90;;;;;;5046430;28;20646;-72
2022/01/07 09:49:45;;;;;;;11.83;8.50;;;3.50;99.90;;;;;;5049956;28;21238;-72
2022/01/07 09:52:10;;;;;;;10.30;8.40;;;3.50;99.90;;;;;;5028493;28;20706;-71
2022/01/07 09:54:38;;;;;;;9.47;8.13;;;3.50;99.90;;;;;;5020288;28;20283;-73
2022/01/07 09:57:06;;;;;;;11.43;8.77;;;3.50;99.90;;;;;;5046664;28;20203;-72
2022/01/07 09:59:33;;;;;;;10.90;9.10;;;3.50;99.90;;;;;;5047214;28;20684;-72
2022/01/07 10:02:09;;;;;;;11.17;8.70;;;3.50;99.90;;;;;;5043013;28;20638;-73
2022/01/07 10:04:37;;;;;;;12.10;9.20;;;3.50;99.90;;;;;;5024880;28;20841;-72
2022/01/07 10:07:13;;;;;;;14.60;10.40;;;3.60;99.90;;;;;;5029172;28;20602;-73
2022/01/07 10:09:40;;;;;;;12.87;9.80;;;3.50;99.90;;;;;;5046001;28;21066;-72
2022/01/07 10:12:07;;;;;;;11.97;10.27;;;3.50;99.90;;;;;;5046294;28;20619;-73
2022/01/07 10:14:34;;;;;;;12.83;9.00;;;3.50;99.90;;;;;;5044500;28;20618;-72
2022/01/07 10:17:01;;;;;;;12.20;10.10;;;3.50;99.90;;;;;;5027006;28;20615;-73
2022/01/07 10:19:34;;;;;;;14.60;10.67;;;3.60;99.90;;;;;;5072727;28;20651;-73
2022/01/07 10:22:08;;;;;;;14.77;10.30;;;3.50;99.90;;;;;;5047450;28;20733;-72
2022/01/07 10:24:58;;;;;;;12.40;10.10;;;3.50;99.90;;;;;;5050376;28;20618;-73
2022/01/07 10:27:35;;;;;;;15.80;11.37;;;3.40;99.90;;;;;;5050445;28;20649;-74
2022/01/07 10:30:13;;;;;;;11.03;9.13;;;3.40;99.90;;;;;;5050964;28;20641;-74
2022/01/07 10:32:39;;;;;;;12.90;10.40;;;3.40;99.90;;;;;;5030013;28;20737;-73
2022/01/07 10:35:06;;;;;;;15.40;11.40;;;3.50;99.90;;;;;;5050559;28;20610;-73
2022/01/07 10:37:33;;;;;;;12.97;9.20;;;3.50;99.90;;;;;;5066172;28;21236;-72
2022/01/07 10:39:58;;;;;;;11.70;9.10;;;3.60;99.90;;;;;;5031056;28;20745;-72
2022/01/07 10:42:25;;;;;;;13.17;9.80;;;3.60;99.90;;;;;;5050054;28;20717;-72
2022/01/07 10:44:58;;;;;;;11.60;9.90;;;3.60;99.90;;;;;;5049970;28;20223;-73
2022/01/07 10:47:44;;;;;;;12.37;9.10;;;3.50;99.90;;;;;;5047413;28;21155;-72
2022/01/07 10:50:19;;;;;;;15.83;11.10;;;3.60;99.90;;;;;;4986382;28;20656;-72
2022/01/07 10:52:45;;;;;;;12.73;10.53;;;3.60;99.90;;;;;;4986382;28;20620;-72
2022/01/07 10:55:21;;;;;;;13.60;10.27;;;3.60;99.90;;;;;;4979597;28;20633;-72
2022/01/07 10:57:49;;;;;;;13.50;9.87;;;3.70;99.90;;;;;;4976730;28;20224;-72
2022/01/07 11:00:21;;;;;;;13.13;10.20;;;3.60;99.90;;;;;;4986104;28;20748;-72
2022/01/07 11:02:47;;;;;;;12.10;9.20;;;3.70;99.90;;;;;;4980436;28;20625;-72
2022/01/07 11:05:16;;;;;;;14.00;10.73;;;3.70;99.90;;;;;;4982733;28;21145;-72
2022/01/07 11:07:43;;;;;;;14.07;10.60;;;3.80;99.90;;;;;;4969481;28;20731;-72
2022/01/07 11:10:09;;;;;;;14.10;10.37;;;3.70;99.90;;;;;;4975507;28;20672;-72
2022/01/07 11:12:35;;;;;;;13.90;10.40;;;3.70;99.90;;;;;;4978087;28;20649;-73
2022/01/07 11:15:03;;;;;;;13.20;9.67;;;3.70;99.90;;;;;;4972895;28;20625;-72
2022/01/07 11:17:29;;;;;;;15.73;10.50;;;3.70;99.90;;;;;;4980459;28;20667;-73
2022/01/07 11:19:59;;;;;;;18.03;11.50;;;3.70;99.90;;;;;;4975792;28;20783;-72
2022/01/07 11:22:25;;;;;;;13.53;11.40;;;3.80;99.90;;;;;;4981982;28;20719;-72
2022/01/07 11:24:59;;;;;;;16.57;11.40;;;3.60;99.90;;;;;;4979722;28;20632;-73
2022/01/07 11:27:26;;;;;;;19.13;12.20;;;3.70;99.90;;;;;;5014435;28;20646;-72
2022/01/07 11:30:06;;;;;;;17.93;12.10;;;3.80;99.90;;;;;;5016598;28;20749;-72
2022/01/07 11:32:33;;;;;;;19.30;11.87;;;3.80;99.90;;;;;;5025538;28;20712;-72
2022/01/07 11:35:19;;;;;;;16.27;12.03;;;3.90;99.90;;;;;;5023581;28;20635;-72
2022/01/07 11:37:49;;;;;;;13.20;11.40;;;4.00;99.90;;;;;;5043077;28;20661;-72
2022/01/07 11:40:30;;;;;;;14.40;11.17;;;4.00;99.90;;;;;;5039661;28;20661;-72
2022/01/07 11:43:26;;;;;;;15.03;11.67;;;4.00;99.90;;;;;;5035747;28;20665;-73
2022/01/07 11:45:52;;;;;;;17.23;12.20;;;4.00;99.90;;;;;;5021587;28;21211;-72
2022/01/07 11:48:24;;;;;;;16.90;11.87;;;3.90;99.90;;;;;;5024932;28;20662;-72
2022/01/07 11:50:55;;;;;;;18.27;12.80;;;4.10;99.90;;;;;;5014220;28;20745;-72
2022/01/07 11:53:49;;;;;;;16.77;12.30;;;4.00;99.90;;;;;;5036049;28;20630;-72
2022/01/07 11:56:18;;;;;;;17.60;12.10;;;4.00;99.90;;;;;;5030918;28;20641;-73
2022/01/07 11:59:09;;;;;;;17.27;12.83;;;4.00;99.90;;;;;;5042694;28;20911;-76
2022/01/07 12:01:36;;;;;;;16.40;12.97;;;4.00;99.90;;;;;;5026631;28;20636;-74
2022/01/07 12:04:29;;;;;;;16.80;12.43;;;4.00;99.90;;;;;;5040467;28;20638;-75
2022/01/07 12:07:01;;;;;;;17.43;12.53;;;4.10;99.90;;;;;;5029338;28;20638;-72
2022/01/07 12:09:35;;;;;;;18.53;13.13;;;4.20;99.90;;;;;;5043476;28;20672;-75
2022/01/07 12:12:05;;;;;;;19.13;13.47;;;4.20;99.90;;;;;;5027483;28;20634;-75
2022/01/07 12:14:35;;;;;;;18.07;13.93;;;4.20;99.90;;;;;;5045190;28;20583;-74
2022/01/07 12:17:03;;;;;;;20.50;13.93;;;4.30;99.90;;;;;;5047024;28;20634;-76
2022/01/07 12:19:35;;;;;;;21.33;15.50;;;4.30;99.90;;;;;;5040442;28;20685;-72
2022/01/07 12:22:01;;;;;;;19.30;14.53;;;4.40;99.90;;;;;;5047682;28;20583;-74
2022/01/07 12:24:30;;;;;;;24.23;14.70;;;4.40;99.90;;;;;;5048560;28;20637;-74
2022/01/07 12:27:04;;;;;;;19.10;14.43;;;4.50;99.90;;;;;;5028527;28;20279;-73
2022/01/07 12:29:39;;;;;;;19.90;13.43;;;4.50;99.90;;;;;;5033361;28;20638;-73
2022/01/07 12:32:06;;;;;;;20.67;14.57;;;4.50;99.90;;;;;;5042693;28;20605;-73
2022/01/07 12:34:40;;;;;;;23.87;15.77;;;4.50;99.90;;;;;;5029394;28;20657;-72
2022/01/07 12:37:07;;;;;;;20.73;15.10;;;4.50;99.90;;;;;;5049090;28;20594;-73
2022/01/07 12:39:38;;;;;;;22.50;14.70;;;4.40;99.90;;;;;;5014979;28;20677;-73
2022/01/07 12:42:06;;;;;;;21.70;14.40;;;4.40;99.90;;;;;;5032548;28;22143;-73
2022/01/07 12:44:39;;;;;;;18.37;13.77;;;4.50;99.90;;;;;;5044924;28;20622;-72
2022/01/07 12:47:06;;;;;;;20.93;14.70;;;4.50;99.90;;;;;;5045027;28;21209;-75
2022/01/07 12:49:36;;;;;;;23.60;14.40;;;4.60;99.90;;;;;;5026536;28;20638;-74
2022/01/07 12:52:04;;;;;;;21.80;14.50;;;4.70;99.90;;;;;;5039652;28;20646;-71
2022/01/07 12:54:30;;;;;;;20.00;14.23;;;4.70;99.90;;;;;;5040380;28;20725;-73
2022/01/07 12:56:56;;;;;;;19.80;14.80;;;4.70;99.90;;;;;;5021606;28;20660;-71